sensor_id;sensor_type;location;lat;lon;timestamp;temperature;humidity
2010;DHT22;1008;47.404;8.502;2023-02-03T00:01:26;5.90;99.90
2010;DHT22;1008;47.404;8.502;2023-02-03T00:03:53;5.80;99.90
2010;DHT22;1008;47.404;8.502;2023-02-03T00:06:20;5.80;99.90
2010;DHT22;1008;47.404;8.502;2023-02-03T00:08:47;5.70;99.90
2010;DHT22;1008;47.404;8.502;2023-02-03T00:11:14;5.70;99.90
2010;DHT22;1008;47.404;8.502;2023-02-03T00:13:41;5.70;99.90
2010;DHT22;1008;47.404;8.502;2023-02-03T00:16:08;5.60;99.90
2010;DHT22;1008;47.404;8.502;2023-02-03T00:18:36;5.60;99.90
2010;DHT22;1008;47.404;8.502;2023-02-03T00:21:03;5.60;99.90
2010;DHT22;1008;47.404;8.502;2023-02-03T00:23:30;5.60;99.90
2010;DHT22;1008;47.404;8.502;2023-02-03T00:25:59;5.50;99.90
2010;DHT22;1008;47.404;8.502;2023-02-03T00:28:31;5.50;99.90
2010;DHT22;1008;47.404;8.502;2023-02-03T00:30:58;5.40;99.90
2010;DHT22;1008;47.404;8.502;2023-02-03T00:33:24;5.40;99.90
2010;DHT22;1008;47.404;8.502;2023-02-03T00:35:53;5.90;99.90
2010;DHT22;1008;47.404;8.502;2023-02-03T00:38:19;5.40;99.90
2010;DHT22;1008;47.404;8.502;2023-02-03T00:40:51;5.40;99.90
2010;DHT22;1008;47.404;8.502;2023-02-03T00:43:18;5.50;99.90
2010;DHT22;1008;47.404;8.502;2023-02-03T00:45:45;5.50;99.90
2010;DHT22;1008;47.404;8.502;2023-02-03T00:48:12;5.60;99.90
2010;DHT22;1008;47.404;8.502;2023-02-03T00:50:39;5.50;99.90
2010;DHT22;1008;47.404;8.502;2023-02-03T00:53:07;5.50;99.90
2010;DHT22;1008;47.404;8.502;2023-02-03T00:55:34;5.80;99.90
2010;DHT22;1008;47.404;8.502;2023-02-03T00:58:01;5.40;99.90
2010;DHT22;1008;47.404;8.502;2023-02-03T01:00:27;5.40;99.90
2010;DHT22;1008;47.404;8.502;2023-02-03T01:02:54;5.40;99.90
2010;DHT22;1008;47.404;8.502;2023-02-03T01:05:22;5.60;99.90
2010;DHT22;1008;47.404;8.502;2023-02-03T01:07:49;5.40;99.90
2010;DHT22;1008;47.404;8.502;2023-02-03T01:10:17;5.30;99.90
2010;DHT22;1008;47.404;8.502;2023-02-03T01:12:44;5.30;99.90
2010;DHT22;1008;47.404;8.502;2023-02-03T01:15:10;5.40;99.90
2010;DHT22;1008;47.404;8.502;2023-02-03T01:17:37;5.30;99.90
2010;DHT22;1008;47.404;8.502;2023-02-03T01:20:05;5.40;99.90
2010;DHT22;1008;47.404;8.502;2023-02-03T01:22:32;5.40;99.90
2010;DHT22;1008;47.404;8.502;2023-02-03T01:24:58;5.50;99.90
2010;DHT22;1008;47.404;8.502;2023-02-03T01:27:26;5.40;99.90
2010;DHT22;1008;47.404;8.502;2023-02-03T01:29:53;5.40;99.90
2010;DHT22;1008;47.404;8.502;2023-02-03T01:32:20;5.50;99.90
2010;DHT22;1008;47.404;8.502;2023-02-03T01:34:46;5.50;99.90
2010;DHT22;1008;47.404;8.502;2023-02-03T01:37:13;5.50;99.90
2010;DHT22;1008;47.404;8.502;2023-02-03T01:39:42;5.30;99.90
2010;DHT22;1008;47.404;8.502;2023-02-03T01:42:11;5.10;99.90
2010;DHT22;1008;47.404;8.502;2023-02-03T01:44:43;5.10;99.90
2010;DHT22;1008;47.404;8.502;2023-02-03T01:47:23;5.10;99.90
2010;DHT22;1008;47.404;8.502;2023-02-03T01:49:55;5.20;99.90
2010;DHT22;1008;47.404;8.502;2023-02-03T01:52:23;5.30;99.90
2010;DHT22;1008;47.404;8.502;2023-02-03T01:54:53;5.30;99.90
2010;DHT22;1008;47.404;8.502;2023-02-03T01:57:27;5.40;99.90
2010;DHT22;1008;47.404;8.502;2023-02-03T01:59:57;5.30;99.90
2010;DHT22;1008;47.404;8.502;2023-02-03T02:02:25;5.30;99.90
2010;DHT22;1008;47.404;8.502;2023-02-03T02:04:57;5.40;99.90
2010;DHT22;1008;47.404;8.502;2023-02-03T02:07:25;5.40;99.90
2010;DHT22;1008;47.404;8.502;2023-02-03T02:09:53;5.70;99.90
2010;DHT22;1008;47.404;8.502;2023-02-03T02:12:20;5.50;99.90
2010;DHT22;1008;47.404;8.502;2023-02-03T02:14:47;5.40;99.90
2010;DHT22;1008;47.404;8.502;2023-02-03T02:17:31;5.70;99.90
2010;DHT22;1008;47.404;8.502;2023-02-03T02:20:28;5.40;99.90
2010;DHT22;1008;47.404;8.502;2023-02-03T02:26:19;5.30;99.90
2010;DHT22;1008;47.404;8.502;2023-02-03T02:29:11;5.30;99.90
2010;DHT22;1008;47.404;8.502;2023-02-03T02:31:55;5.40;99.90
2010;DHT22;1008;47.404;8.502;2023-02-03T02:34:30;5.40;99.90
2010;DHT22;1008;47.404;8.502;2023-02-03T02:37:04;5.20;99.90
2010;DHT22;1008;47.404;8.502;2023-02-03T02:39:38;5.40;99.90
2010;DHT22;1008;47.404;8.502;2023-02-03T02:42:14;5.50;99.90
2010;DHT22;1008;47.404;8.502;2023-02-03T02:44:48;5.20;99.90
2010;DHT22;1008;47.404;8.502;2023-02-03T02:47:19;5.50;99.90
2010;DHT22;1008;47.404;8.502;2023-02-03T02:49:52;5.50;99.90
2010;DHT22;1008;47.404;8.502;2023-02-03T02:52:21;5.40;99.90
2010;DHT22;1008;47.404;8.502;2023-02-03T02:54:51;5.50;99.90
2010;DHT22;1008;47.404;8.502;2023-02-03T02:57:20;5.40;99.90
2010;DHT22;1008;47.404;8.502;2023-02-03T02:59:47;5.60;99.90
2010;DHT22;1008;47.404;8.502;2023-02-03T03:02:14;5.50;99.90
2010;DHT22;1008;47.404;8.502;2023-02-03T03:04:45;5.50;99.90
2010;DHT22;1008;47.404;8.502;2023-02-03T03:07:16;5.50;99.90
2010;DHT22;1008;47.404;8.502;2023-02-03T03:09:46;5.60;99.90
2010;DHT22;1008;47.404;8.502;2023-02-03T03:12:17;5.60;99.90
2010;DHT22;1008;47.404;8.502;2023-02-03T03:14:49;5.60;99.90
2010;DHT22;1008;47.404;8.502;2023-02-03T03:17:22;5.70;99.90
2010;DHT22;1008;47.404;8.502;2023-02-03T03:19:54;5.80;99.90
2010;DHT22;1008;47.404;8.502;2023-02-03T03:22:24;5.70;99.90
2010;DHT22;1008;47.404;8.502;2023-02-03T03:24:59;5.80;99.90
2010;DHT22;1008;47.404;8.502;2023-02-03T03:27:30;5.70;99.90
2010;DHT22;1008;47.404;8.502;2023-02-03T03:30:02;5.80;99.90
2010;DHT22;1008;47.404;8.502;2023-02-03T03:32:31;5.70;99.90
2010;DHT22;1008;47.404;8.502;2023-02-03T03:35:00;5.80;99.90
2010;DHT22;1008;47.404;8.502;2023-02-03T03:37:34;5.70;99.90
2010;DHT22;1008;47.404;8.502;2023-02-03T03:40:07;5.70;99.90
2010;DHT22;1008;47.404;8.502;2023-02-03T03:42:38;5.80;99.90
2010;DHT22;1008;47.404;8.502;2023-02-03T03:45:09;5.80;99.90
2010;DHT22;1008;47.404;8.502;2023-02-03T03:47:43;5.70;99.90
2010;DHT22;1008;47.404;8.502;2023-02-03T03:50:17;5.80;99.90
2010;DHT22;1008;47.404;8.502;2023-02-03T03:52:45;5.80;99.90
2010;DHT22;1008;47.404;8.502;2023-02-03T03:55:13;5.80;99.90
2010;DHT22;1008;47.404;8.502;2023-02-03T03:57:45;5.80;99.90
2010;DHT22;1008;47.404;8.502;2023-02-03T04:00:17;5.80;99.90
2010;DHT22;1008;47.404;8.502;2023-02-03T04:02:50;5.90;99.90
2010;DHT22;1008;47.404;8.502;2023-02-03T04:05:19;5.80;99.90
2010;DHT22;1008;47.404;8.502;2023-02-03T04:07:47;5.90;99.90
2010;DHT22;1008;47.404;8.502;2023-02-03T04:10:19;6.00;99.90
2010;DHT22;1008;47.404;8.502;2023-02-03T04:12:47;5.90;99.90
2010;DHT22;1008;47.404;8.502;2023-02-03T04:15:14;6.10;99.90
2010;DHT22;1008;47.404;8.502;2023-02-03T04:17:41;6.00;99.90
2010;DHT22;1008;47.404;8.502;2023-02-03T04:20:09;6.00;99.90
2010;DHT22;1008;47.404;8.502;2023-02-03T04:22:37;6.00;99.90
2010;DHT22;1008;47.404;8.502;2023-02-03T04:25:04;6.10;99.90
2010;DHT22;1008;47.404;8.502;2023-02-03T04:27:32;6.00;99.90
2010;DHT22;1008;47.404;8.502;2023-02-03T04:29:59;6.00;99.90
2010;DHT22;1008;47.404;8.502;2023-02-03T04:32:26;5.90;99.90
2010;DHT22;1008;47.404;8.502;2023-02-03T04:34:52;6.00;99.90
2010;DHT22;1008;47.404;8.502;2023-02-03T04:37:19;5.70;99.90
2010;DHT22;1008;47.404;8.502;2023-02-03T04:39:49;5.70;99.90
2010;DHT22;1008;47.404;8.502;2023-02-03T04:42:16;5.70;99.90
2010;DHT22;1008;47.404;8.502;2023-02-03T04:44:43;5.80;99.90
2010;DHT22;1008;47.404;8.502;2023-02-03T04:47:10;5.90;99.90
2010;DHT22;1008;47.404;8.502;2023-02-03T04:49:36;5.90;99.90
2010;DHT22;1008;47.404;8.502;2023-02-03T04:52:03;5.80;99.90
2010;DHT22;1008;47.404;8.502;2023-02-03T04:54:31;5.90;99.90
2010;DHT22;1008;47.404;8.502;2023-02-03T04:56:59;5.90;99.90
2010;DHT22;1008;47.404;8.502;2023-02-03T04:59:26;5.90;99.90
2010;DHT22;1008;47.404;8.502;2023-02-03T05:01:53;5.90;99.90
2010;DHT22;1008;47.404;8.502;2023-02-03T05:04:20;5.90;99.90
2010;DHT22;1008;47.404;8.502;2023-02-03T05:06:47;6.00;99.90
2010;DHT22;1008;47.404;8.502;2023-02-03T05:09:13;6.00;99.90
2010;DHT22;1008;47.404;8.502;2023-02-03T05:11:40;5.80;99.90
2010;DHT22;1008;47.404;8.502;2023-02-03T05:14:08;5.80;99.90
2010;DHT22;1008;47.404;8.502;2023-02-03T05:16:35;5.80;99.90
2010;DHT22;1008;47.404;8.502;2023-02-03T05:19:02;5.80;99.90
2010;DHT22;1008;47.404;8.502;2023-02-03T05:21:29;5.80;99.90
2010;DHT22;1008;47.404;8.502;2023-02-03T05:23:55;5.80;99.90
2010;DHT22;1008;47.404;8.502;2023-02-03T05:26:22;5.80;99.90
2010;DHT22;1008;47.404;8.502;2023-02-03T05:28:49;5.80;99.90
2010;DHT22;1008;47.404;8.502;2023-02-03T05:31:17;6.00;99.90
2010;DHT22;1008;47.404;8.502;2023-02-03T05:33:44;5.90;99.90
2010;DHT22;1008;47.404;8.502;2023-02-03T05:36:11;5.80;99.90
2010;DHT22;1008;47.404;8.502;2023-02-03T05:38:37;5.70;99.90
2010;DHT22;1008;47.404;8.502;2023-02-03T05:41:04;5.60;99.90
2010;DHT22;1008;47.404;8.502;2023-02-03T05:43:48;5.70;99.90
2010;DHT22;1008;47.404;8.502;2023-02-03T05:46:16;5.80;99.90
2010;DHT22;1008;47.404;8.502;2023-02-03T05:48:43;5.90;99.90
2010;DHT22;1008;47.404;8.502;2023-02-03T05:51:10;5.80;99.90
2010;DHT22;1008;47.404;8.502;2023-02-03T05:53:36;6.00;99.90
2010;DHT22;1008;47.404;8.502;2023-02-03T05:56:04;5.70;99.90
2010;DHT22;1008;47.404;8.502;2023-02-03T05:58:30;5.70;99.90
2010;DHT22;1008;47.404;8.502;2023-02-03T06:00:57;5.80;99.90
2010;DHT22;1008;47.404;8.502;2023-02-03T06:03:25;5.70;99.90
2010;DHT22;1008;47.404;8.502;2023-02-03T06:05:52;5.80;99.90
2010;DHT22;1008;47.404;8.502;2023-02-03T06:08:19;5.70;99.90
2010;DHT22;1008;47.404;8.502;2023-02-03T06:10:45;5.60;99.90
2010;DHT22;1008;47.404;8.502;2023-02-03T06:13:14;5.70;99.90
2010;DHT22;1008;47.404;8.502;2023-02-03T06:15:41;5.50;99.90
2010;DHT22;1008;47.404;8.502;2023-02-03T06:18:09;5.40;99.90
2010;DHT22;1008;47.404;8.502;2023-02-03T06:20:37;5.30;99.90
2010;DHT22;1008;47.404;8.502;2023-02-03T06:23:04;5.40;99.90
2010;DHT22;1008;47.404;8.502;2023-02-03T06:25:31;5.40;99.90
2010;DHT22;1008;47.404;8.502;2023-02-03T06:27:58;5.40;99.90
2010;DHT22;1008;47.404;8.502;2023-02-03T06:30:24;5.40;99.90
2010;DHT22;1008;47.404;8.502;2023-02-03T06:32:51;5.30;99.90
2010;DHT22;1008;47.404;8.502;2023-02-03T06:35:18;5.30;99.90
2010;DHT22;1008;47.404;8.502;2023-02-03T06:37:46;5.50;99.90
2010;DHT22;1008;47.404;8.502;2023-02-03T06:40:13;5.60;99.90
2010;DHT22;1008;47.404;8.502;2023-02-03T06:42:43;5.50;99.90
2010;DHT22;1008;47.404;8.502;2023-02-03T06:45:10;5.50;99.90
2010;DHT22;1008;47.404;8.502;2023-02-03T06:47:38;5.50;99.90
2010;DHT22;1008;47.404;8.502;2023-02-03T06:50:06;5.50;99.90
2010;DHT22;1008;47.404;8.502;2023-02-03T06:52:33;5.50;99.90
2010;DHT22;1008;47.404;8.502;2023-02-03T06:55:01;5.30;99.90
2010;DHT22;1008;47.404;8.502;2023-02-03T06:57:28;5.30;99.90
2010;DHT22;1008;47.404;8.502;2023-02-03T06:59:55;5.30;99.90
2010;DHT22;1008;47.404;8.502;2023-02-03T07:02:22;5.30;99.90
2010;DHT22;1008;47.404;8.502;2023-02-03T07:04:48;5.10;99.90
2010;DHT22;1008;47.404;8.502;2023-02-03T07:07:15;5.30;99.90
2010;DHT22;1008;47.404;8.502;2023-02-03T07:09:42;5.40;99.90
2010;DHT22;1008;47.404;8.502;2023-02-03T07:12:10;5.40;99.90
2010;DHT22;1008;47.404;8.502;2023-02-03T07:14:37;5.30;99.90
2010;DHT22;1008;47.404;8.502;2023-02-03T07:17:05;5.40;99.90
2010;DHT22;1008;47.404;8.502;2023-02-03T07:19:31;5.10;99.90
2010;DHT22;1008;47.404;8.502;2023-02-03T07:21:58;5.50;99.90
2010;DHT22;1008;47.404;8.502;2023-02-03T07:24:25;5.60;99.90
2010;DHT22;1008;47.404;8.502;2023-02-03T07:26:52;5.60;99.90
2010;DHT22;1008;47.404;8.502;2023-02-03T07:29:20;5.70;99.90
2010;DHT22;1008;47.404;8.502;2023-02-03T07:31:47;5.60;99.90
2010;DHT22;1008;47.404;8.502;2023-02-03T07:34:14;5.60;99.90
2010;DHT22;1008;47.404;8.502;2023-02-03T07:36:40;5.80;99.90
2010;DHT22;1008;47.404;8.502;2023-02-03T07:39:07;5.70;99.90
2010;DHT22;1008;47.404;8.502;2023-02-03T07:41:34;5.80;99.90
2010;DHT22;1008;47.404;8.502;2023-02-03T07:44:01;5.80;99.90
2010;DHT22;1008;47.404;8.502;2023-02-03T07:46:29;5.70;99.90
2010;DHT22;1008;47.404;8.502;2023-02-03T07:48:56;5.80;99.90
2010;DHT22;1008;47.404;8.502;2023-02-03T07:51:23;5.80;99.90
2010;DHT22;1008;47.404;8.502;2023-02-03T07:53:50;5.70;99.90
2010;DHT22;1008;47.404;8.502;2023-02-03T07:56:16;5.70;99.90
2010;DHT22;1008;47.404;8.502;2023-02-03T07:58:43;5.70;99.90
2010;DHT22;1008;47.404;8.502;2023-02-03T08:01:13;5.90;99.90
2010;DHT22;1008;47.404;8.502;2023-02-03T08:03:41;6.00;99.90
2010;DHT22;1008;47.404;8.502;2023-02-03T08:06:09;6.00;99.90
2010;DHT22;1008;47.404;8.502;2023-02-03T08:08:35;6.00;99.90
2010;DHT22;1008;47.404;8.502;2023-02-03T08:11:02;5.90;99.90
2010;DHT22;1008;47.404;8.502;2023-02-03T08:13:29;5.90;99.90
2010;DHT22;1008;47.404;8.502;2023-02-03T08:15:56;5.90;99.90
2010;DHT22;1008;47.404;8.502;2023-02-03T08:18:23;5.70;99.90
2010;DHT22;1008;47.404;8.502;2023-02-03T08:20:51;5.70;99.90
2010;DHT22;1008;47.404;8.502;2023-02-03T08:23:17;5.90;99.90
2010;DHT22;1008;47.404;8.502;2023-02-03T08:25:44;5.80;99.90
2010;DHT22;1008;47.404;8.502;2023-02-03T08:28:15;6.00;99.90
2010;DHT22;1008;47.404;8.502;2023-02-03T08:30:42;5.90;99.90
2010;DHT22;1008;47.404;8.502;2023-02-03T08:33:08;5.80;99.90
2010;DHT22;1008;47.404;8.502;2023-02-03T08:35:35;5.70;99.90
2010;DHT22;1008;47.404;8.502;2023-02-03T08:38:04;5.70;99.90
2010;DHT22;1008;47.404;8.502;2023-02-03T08:40:30;5.80;99.90
2010;DHT22;1008;47.404;8.502;2023-02-03T08:42:57;6.00;99.90
2010;DHT22;1008;47.404;8.502;2023-02-03T08:45:24;5.90;99.90
2010;DHT22;1008;47.404;8.502;2023-02-03T08:47:51;6.20;99.90
2010;DHT22;1008;47.404;8.502;2023-02-03T08:50:17;6.20;99.90
2010;DHT22;1008;47.404;8.502;2023-02-03T08:52:44;6.20;99.90
2010;DHT22;1008;47.404;8.502;2023-02-03T08:55:12;6.20;99.90
2010;DHT22;1008;47.404;8.502;2023-02-03T08:57:39;6.20;99.90
2010;DHT22;1008;47.404;8.502;2023-02-03T09:00:07;5.90;99.90
2010;DHT22;1008;47.404;8.502;2023-02-03T09:02:34;6.20;99.90
2010;DHT22;1008;47.404;8.502;2023-02-03T09:05:01;6.30;99.90
2010;DHT22;1008;47.404;8.502;2023-02-03T09:07:28;6.10;99.90
2010;DHT22;1008;47.404;8.502;2023-02-03T09:09:55;6.30;99.90
2010;DHT22;1008;47.404;8.502;2023-02-03T09:12:23;6.50;99.90
2010;DHT22;1008;47.404;8.502;2023-02-03T09:14:50;6.30;99.90
2010;DHT22;1008;47.404;8.502;2023-02-03T09:17:16;6.50;99.90
2010;DHT22;1008;47.404;8.502;2023-02-03T09:19:43;6.50;99.90
2010;DHT22;1008;47.404;8.502;2023-02-03T09:22:10;6.60;99.90
2010;DHT22;1008;47.404;8.502;2023-02-03T09:24:37;6.60;99.90
2010;DHT22;1008;47.404;8.502;2023-02-03T09:27:04;6.60;99.90
2010;DHT22;1008;47.404;8.502;2023-02-03T09:29:32;6.90;99.90
2010;DHT22;1008;47.404;8.502;2023-02-03T09:31:59;7.10;99.90
2010;DHT22;1008;47.404;8.502;2023-02-03T09:34:31;6.80;99.90
2010;DHT22;1008;47.404;8.502;2023-02-03T09:36:58;7.00;99.90
2010;DHT22;1008;47.404;8.502;2023-02-03T09:39:24;7.10;99.90
2010;DHT22;1008;47.404;8.502;2023-02-03T09:44:47;7.20;99.90
2010;DHT22;1008;47.404;8.502;2023-02-03T09:47:18;7.60;99.90
2010;DHT22;1008;47.404;8.502;2023-02-03T09:49:50;7.90;99.90
2010;DHT22;1008;47.404;8.502;2023-02-03T09:52:19;8.20;99.90
2010;DHT22;1008;47.404;8.502;2023-02-03T09:54:51;8.30;99.90
2010;DHT22;1008;47.404;8.502;2023-02-03T09:57:22;8.20;99.90
2010;DHT22;1008;47.404;8.502;2023-02-03T09:59:51;7.90;99.90
2010;DHT22;1008;47.404;8.502;2023-02-03T10:02:27;7.60;99.90
2010;DHT22;1008;47.404;8.502;2023-02-03T10:05:00;7.60;99.90
2010;DHT22;1008;47.404;8.502;2023-02-03T10:07:37;7.70;99.90
2010;DHT22;1008;47.404;8.502;2023-02-03T10:10:14;7.90;99.90
2010;DHT22;1008;47.404;8.502;2023-02-03T10:13:00;8.30;99.90
2010;DHT22;1008;47.404;8.502;2023-02-03T10:16:00;8.60;99.90
2010;DHT22;1008;47.404;8.502;2023-02-03T10:18:31;8.60;99.90
2010;DHT22;1008;47.404;8.502;2023-02-03T10:21:02;8.50;99.90
2010;DHT22;1008;47.404;8.502;2023-02-03T10:23:33;8.20;99.90
2010;DHT22;1008;47.404;8.502;2023-02-03T10:26:03;8.70;99.90
2010;DHT22;1008;47.404;8.502;2023-02-03T10:28:34;8.60;99.90
2010;DHT22;1008;47.404;8.502;2023-02-03T10:31:12;8.30;99.90
2010;DHT22;1008;47.404;8.502;2023-02-03T10:33:41;8.20;99.90
2010;DHT22;1008;47.404;8.502;2023-02-03T10:36:14;8.10;99.90
2010;DHT22;1008;47.404;8.502;2023-02-03T10:38:49;8.50;99.90
2010;DHT22;1008;47.404;8.502;2023-02-03T10:41:18;8.40;99.90
2010;DHT22;1008;47.404;8.502;2023-02-03T10:43:46;7.90;99.90
2010;DHT22;1008;47.404;8.502;2023-02-03T10:46:19;7.80;99.90
2010;DHT22;1008;47.404;8.502;2023-02-03T10:48:46;8.00;99.90
2010;DHT22;1008;47.404;8.502;2023-02-03T10:51:18;7.80;99.90
2010;DHT22;1008;47.404;8.502;2023-02-03T10:53:46;8.20;99.90
2010;DHT22;1008;47.404;8.502;2023-02-03T10:56:15;8.20;99.90
2010;DHT22;1008;47.404;8.502;2023-02-03T10:58:47;8.00;99.90
2010;DHT22;1008;47.404;8.502;2023-02-03T11:01:18;7.90;99.90
2010;DHT22;1008;47.404;8.502;2023-02-03T11:03:55;8.10;99.90
2010;DHT22;1008;47.404;8.502;2023-02-03T11:06:22;8.20;99.90
2010;DHT22;1008;47.404;8.502;2023-02-03T11:08:50;8.70;99.90
2010;DHT22;1008;47.404;8.502;2023-02-03T11:11:21;8.70;99.90
2010;DHT22;1008;47.404;8.502;2023-02-03T11:13:52;8.50;99.90
2010;DHT22;1008;47.404;8.502;2023-02-03T11:16:20;8.60;99.90
2010;DHT22;1008;47.404;8.502;2023-02-03T11:18:56;8.60;99.90
2010;DHT22;1008;47.404;8.502;2023-02-03T11:21:27;8.60;99.90
2010;DHT22;1008;47.404;8.502;2023-02-03T11:24:03;8.80;99.90
2010;DHT22;1008;47.404;8.502;2023-02-03T11:26:34;8.80;99.90
2010;DHT22;1008;47.404;8.502;2023-02-03T11:29:04;8.30;99.90
2010;DHT22;1008;47.404;8.502;2023-02-03T11:31:35;8.30;99.90
2010;DHT22;1008;47.404;8.502;2023-02-03T11:34:04;8.50;99.90
2010;DHT22;1008;47.404;8.502;2023-02-03T11:36:33;8.30;99.90
2010;DHT22;1008;47.404;8.502;2023-02-03T11:39:18;8.40;99.90
2010;DHT22;1008;47.404;8.502;2023-02-03T11:41:46;8.30;99.90
2010;DHT22;1008;47.404;8.502;2023-02-03T11:44:19;8.60;99.90
2010;DHT22;1008;47.404;8.502;2023-02-03T11:46:49;8.80;99.90
2010;DHT22;1008;47.404;8.502;2023-02-03T11:52:41;8.70;99.90
2010;DHT22;1008;47.404;8.502;2023-02-03T11:55:18;8.90;99.90
2010;DHT22;1008;47.404;8.502;2023-02-03T11:57:53;8.90;99.90
2010;DHT22;1008;47.404;8.502;2023-02-03T12:00:35;9.40;99.90
2010;DHT22;1008;47.404;8.502;2023-02-03T12:06:20;9.80;99.90
2010;DHT22;1008;47.404;8.502;2023-02-03T12:09:14;9.70;99.90
2010;DHT22;1008;47.404;8.502;2023-02-03T12:11:59;9.70;99.90
2010;DHT22;1008;47.404;8.502;2023-02-03T12:14:40;9.40;99.90
2010;DHT22;1008;47.404;8.502;2023-02-03T12:20:21;8.70;99.90
2010;DHT22;1008;47.404;8.502;2023-02-03T12:22:59;8.40;99.90
2010;DHT22;1008;47.404;8.502;2023-02-03T12:25:38;8.30;99.90
2010;DHT22;1008;47.404;8.502;2023-02-03T12:28:16;8.30;99.90
2010;DHT22;1008;47.404;8.502;2023-02-03T12:30:50;8.30;99.90
2010;DHT22;1008;47.404;8.502;2023-02-03T12:33:23;8.40;99.90
2010;DHT22;1008;47.404;8.502;2023-02-03T12:35:55;8.50;99.90
2010;DHT22;1008;47.404;8.502;2023-02-03T12:38:30;8.70;99.90
2010;DHT22;1008;47.404;8.502;2023-02-03T12:41:05;8.50;99.90
2010;DHT22;1008;47.404;8.502;2023-02-03T12:43:36;8.40;99.90
2010;DHT22;1008;47.404;8.502;2023-02-03T12:46:11;8.30;99.90
2010;DHT22;1008;47.404;8.502;2023-02-03T12:48:46;8.30;99.90
2010;DHT22;1008;47.404;8.502;2023-02-03T12:51:20;8.40;99.90
2010;DHT22;1008;47.404;8.502;2023-02-03T12:53:53;8.40;99.90
2010;DHT22;1008;47.404;8.502;2023-02-03T12:56:25;8.50;99.90
2010;DHT22;1008;47.404;8.502;2023-02-03T12:58:55;8.40;99.90
2010;DHT22;1008;47.404;8.502;2023-02-03T13:01:25;8.30;99.90
2010;DHT22;1008;47.404;8.502;2023-02-03T13:03:59;8.20;99.90
2010;DHT22;1008;47.404;8.502;2023-02-03T13:06:32;8.30;99.90
2010;DHT22;1008;47.404;8.502;2023-02-03T13:09:11;8.20;99.90
2010;DHT22;1008;47.404;8.502;2023-02-03T13:11:45;8.30;99.90
2010;DHT22;1008;47.404;8.502;2023-02-03T13:14:18;8.20;99.90
2010;DHT22;1008;47.404;8.502;2023-02-03T13:16:50;8.20;99.90
2010;DHT22;1008;47.404;8.502;2023-02-03T13:19:21;8.20;99.90
2010;DHT22;1008;47.404;8.502;2023-02-03T13:21:48;8.20;99.90
2010;DHT22;1008;47.404;8.502;2023-02-03T13:24:17;8.20;99.90
2010;DHT22;1008;47.404;8.502;2023-02-03T13:26:57;8.20;99.90
2010;DHT22;1008;47.404;8.502;2023-02-03T13:29:40;8.20;99.90
2010;DHT22;1008;47.404;8.502;2023-02-03T13:32:16;8.20;99.90
2010;DHT22;1008;47.404;8.502;2023-02-03T13:35:05;8.20;99.90
2010;DHT22;1008;47.404;8.502;2023-02-03T13:40:50;8.20;99.90
2010;DHT22;1008;47.404;8.502;2023-02-03T13:43:25;8.20;99.90
2010;DHT22;1008;47.404;8.502;2023-02-03T13:45:53;8.10;99.90
2010;DHT22;1008;47.404;8.502;2023-02-03T13:48:22;8.10;99.90
2010;DHT22;1008;47.404;8.502;2023-02-03T13:51:00;8.20;99.90
2010;DHT22;1008;47.404;8.502;2023-02-03T13:53:34;8.20;99.90
2010;DHT22;1008;47.404;8.502;2023-02-03T13:56:04;8.30;99.90
2010;DHT22;1008;47.404;8.502;2023-02-03T13:58:34;8.30;99.90
2010;DHT22;1008;47.404;8.502;2023-02-03T14:03:47;8.30;99.90
2010;DHT22;1008;47.404;8.502;2023-02-03T14:06:54;8.30;99.90
2010;DHT22;1008;47.404;8.502;2023-02-03T14:09:22;8.20;99.90
2010;DHT22;1008;47.404;8.502;2023-02-03T14:12:22;8.30;99.90
2010;DHT22;1008;47.404;8.502;2023-02-03T14:14:59;8.30;99.90
2010;DHT22;1008;47.404;8.502;2023-02-03T14:20:57;8.10;99.90
2010;DHT22;1008;47.404;8.502;2023-02-03T14:23:57;8.10;99.90
2010;DHT22;1008;47.404;8.502;2023-02-03T14:26:34;8.20;99.90
2010;DHT22;1008;47.404;8.502;2023-02-03T14:29:04;8.20;99.90
2010;DHT22;1008;47.404;8.502;2023-02-03T14:31:51;8.20;99.90
2010;DHT22;1008;47.404;8.502;2023-02-03T14:34:28;8.20;99.90
2010;DHT22;1008;47.404;8.502;2023-02-03T14:36:55;8.20;99.90
2010;DHT22;1008;47.404;8.502;2023-02-03T14:45:32;8.00;99.90
2010;DHT22;1008;47.404;8.502;2023-02-03T14:48:12;7.90;99.90
2010;DHT22;1008;47.404;8.502;2023-02-03T14:50:52;7.90;99.90
2010;DHT22;1008;47.404;8.502;2023-02-03T14:53:32;8.00;99.90
2010;DHT22;1008;47.404;8.502;2023-02-03T14:56:12;8.10;99.90
2010;DHT22;1008;47.404;8.502;2023-02-03T14:58:44;8.10;99.90
2010;DHT22;1008;47.404;8.502;2023-02-03T15:01:25;8.20;99.90
2010;DHT22;1008;47.404;8.502;2023-02-03T15:04:21;8.00;99.90
2010;DHT22;1008;47.404;8.502;2023-02-03T15:06:50;8.10;99.90
2010;DHT22;1008;47.404;8.502;2023-02-03T15:09:24;8.20;99.90
2010;DHT22;1008;47.404;8.502;2023-02-03T15:11:51;8.10;99.90
2010;DHT22;1008;47.404;8.502;2023-02-03T15:14:23;7.90;99.90
2010;DHT22;1008;47.404;8.502;2023-02-03T15:16:55;7.80;99.90
2010;DHT22;1008;47.404;8.502;2023-02-03T15:19:24;7.90;99.90
2010;DHT22;1008;47.404;8.502;2023-02-03T15:21:51;7.80;99.90
2010;DHT22;1008;47.404;8.502;2023-02-03T15:24:20;7.80;99.90
2010;DHT22;1008;47.404;8.502;2023-02-03T15:26:50;7.70;99.90
2010;DHT22;1008;47.404;8.502;2023-02-03T15:29:32;7.90;99.90
2010;DHT22;1008;47.404;8.502;2023-02-03T15:32:07;7.70;99.90
2010;DHT22;1008;47.404;8.502;2023-02-03T15:34:38;7.80;99.90
2010;DHT22;1008;47.404;8.502;2023-02-03T15:37:08;7.70;99.90
2010;DHT22;1008;47.404;8.502;2023-02-03T15:39:44;7.80;99.90
2010;DHT22;1008;47.404;8.502;2023-02-03T15:42:16;7.80;99.90
2010;DHT22;1008;47.404;8.502;2023-02-03T15:44:50;7.70;99.90
2010;DHT22;1008;47.404;8.502;2023-02-03T15:47:28;7.70;99.90
2010;DHT22;1008;47.404;8.502;2023-02-03T15:50:04;7.70;99.90
2010;DHT22;1008;47.404;8.502;2023-02-03T15:52:34;7.60;99.90
2010;DHT22;1008;47.404;8.502;2023-02-03T15:55:14;7.70;99.90
2010;DHT22;1008;47.404;8.502;2023-02-03T15:57:44;7.60;99.90
2010;DHT22;1008;47.404;8.502;2023-02-03T16:00:27;7.60;99.90
2010;DHT22;1008;47.404;8.502;2023-02-03T16:02:57;7.40;99.90
2010;DHT22;1008;47.404;8.502;2023-02-03T16:05:26;7.40;99.90
2010;DHT22;1008;47.404;8.502;2023-02-03T16:07:54;7.40;99.90
2010;DHT22;1008;47.404;8.502;2023-02-03T16:10:26;7.40;99.90
2010;DHT22;1008;47.404;8.502;2023-02-03T16:13:16;7.40;99.90
2010;DHT22;1008;47.404;8.502;2023-02-03T16:15:56;7.40;99.90
2010;DHT22;1008;47.404;8.502;2023-02-03T16:18:25;7.50;99.90
2010;DHT22;1008;47.404;8.502;2023-02-03T16:20:52;7.50;99.90
2010;DHT22;1008;47.404;8.502;2023-02-03T16:23:20;7.50;99.90
2010;DHT22;1008;47.404;8.502;2023-02-03T16:26:21;7.40;99.90
2010;DHT22;1008;47.404;8.502;2023-02-03T16:29:09;7.60;99.90
2010;DHT22;1008;47.404;8.502;2023-02-03T16:31:54;7.50;99.90
2010;DHT22;1008;47.404;8.502;2023-02-03T16:34:40;7.60;99.90
2010;DHT22;1008;47.404;8.502;2023-02-03T16:37:26;7.50;99.90
2010;DHT22;1008;47.404;8.502;2023-02-03T16:40:12;7.70;99.90
2010;DHT22;1008;47.404;8.502;2023-02-03T16:42:57;7.60;99.90
2010;DHT22;1008;47.404;8.502;2023-02-03T16:45:41;7.60;99.90
2010;DHT22;1008;47.404;8.502;2023-02-03T16:48:25;7.40;99.90
2010;DHT22;1008;47.404;8.502;2023-02-03T16:51:12;7.50;99.90
2010;DHT22;1008;47.404;8.502;2023-02-03T16:53:41;7.50;99.90
2010;DHT22;1008;47.404;8.502;2023-02-03T16:56:09;7.40;99.90
2010;DHT22;1008;47.404;8.502;2023-02-03T16:58:36;7.30;99.90
2010;DHT22;1008;47.404;8.502;2023-02-03T17:01:04;7.30;99.90
2010;DHT22;1008;47.404;8.502;2023-02-03T17:03:33;7.30;99.90
2010;DHT22;1008;47.404;8.502;2023-02-03T17:06:02;7.50;99.90
2010;DHT22;1008;47.404;8.502;2023-02-03T17:08:32;7.20;99.90
2010;DHT22;1008;47.404;8.502;2023-02-03T17:11:02;7.30;99.90
2010;DHT22;1008;47.404;8.502;2023-02-03T17:13:29;7.40;99.90